createdAt,value
2022-10-14T00:01:18.634Z,29.35
2022-10-14T00:03:45.579Z,24.92
2022-10-14T00:06:17.909Z,25.13
2022-10-14T00:08:47.356Z,28.08
2022-10-14T00:11:24.481Z,29.55
2022-10-14T00:13:54.722Z,26.77
2022-10-14T00:16:24.936Z,29.55
2022-10-14T00:18:52.277Z,27.98
2022-10-14T00:21:19.982Z,27.77
2022-10-14T00:23:47.491Z,36.45
2022-10-14T00:26:19.926Z,32.50
2022-10-14T00:28:47.333Z,27.83
2022-10-14T00:31:14.734Z,33.85
2022-10-14T00:33:41.814Z,32.30
2022-10-14T00:36:10.903Z,33.05
2022-10-14T00:38:37.664Z,32.97
2022-10-14T00:41:04.775Z,32.83
2022-10-14T00:43:51.125Z,32.13
2022-10-14T00:46:19.133Z,33.58
2022-10-14T00:48:46.501Z,31.70
2022-10-14T00:51:13.996Z,37.67
2022-10-14T00:53:43.740Z,34.80
2022-10-14T00:56:12.897Z,36.55
2022-10-14T00:58:40.067Z,35.78
2022-10-14T01:01:08.344Z,36.00
2022-10-14T01:03:35.277Z,39.45
2022-10-14T01:06:13.893Z,41.05
2022-10-14T01:08:48.263Z,39.17
2022-10-14T01:11:41.482Z,39.13
2022-10-14T01:14:36.394Z,37.20
2022-10-14T01:17:18.655Z,33.13
2022-10-14T01:20:05.367Z,39.22
2022-10-14T01:22:39.373Z,41.92
2022-10-14T01:25:21.208Z,39.85
2022-10-14T01:27:52.281Z,39.25
2022-10-14T01:30:21.639Z,37.20
2022-10-14T01:33:22.395Z,41.45
2022-10-14T01:35:57.766Z,41.20
2022-10-14T01:38:30.531Z,40.60
2022-10-14T01:41:04.305Z,35.58
2022-10-14T01:43:33.309Z,40.85
2022-10-14T01:46:04.200Z,40.65
2022-10-14T01:48:37.037Z,43.65
2022-10-14T01:51:11.885Z,41.80
2022-10-14T01:53:43.822Z,40.35
2022-10-14T01:56:12.673Z,39.58
2022-10-14T01:58:40.740Z,40.17
2022-10-14T02:01:09.586Z,44.45
2022-10-14T02:03:42.475Z,40.47
2022-10-14T02:06:33.781Z,46.85
2022-10-14T02:09:33.084Z,42.17
2022-10-14T02:12:23.556Z,44.60
2022-10-14T02:15:12.114Z,43.47
2022-10-14T02:18:03.034Z,41.35
2022-10-14T02:20:36.538Z,47.75
2022-10-14T02:23:16.323Z,44.15
2022-10-14T02:25:46.713Z,41.92
2022-10-14T02:28:19.149Z,45.35
2022-10-14T02:30:52.253Z,44.25
2022-10-14T02:33:22.998Z,41.40
2022-10-14T02:35:51.371Z,41.97
2022-10-14T02:38:20.212Z,46.25
2022-10-14T02:40:49.888Z,49.78
2022-10-14T02:43:18.273Z,45.83
2022-10-14T02:45:45.351Z,53.63
2022-10-14T02:48:12.855Z,53.58
2022-10-14T02:50:41.022Z,48.88
2022-10-14T02:53:08.084Z,44.40
2022-10-14T02:55:34.939Z,47.10
2022-10-14T02:58:01.751Z,45.35
2022-10-14T03:00:28.893Z,46.15
2022-10-14T03:02:55.873Z,48.83
2022-10-14T03:05:23.001Z,50.58
2022-10-14T03:07:50.187Z,45.70
2022-10-14T03:10:17.667Z,48.22
2022-10-14T03:12:44.892Z,51.03
2022-10-14T03:15:12.080Z,48.65
2022-10-14T03:17:38.974Z,52.40
2022-10-14T03:20:07.180Z,48.55
2022-10-14T03:22:34.121Z,49.58
2022-10-14T03:25:01.149Z,51.42
2022-10-14T03:27:28.179Z,56.53
2022-10-14T03:29:55.052Z,51.63
2022-10-14T03:32:22.237Z,57.58
2022-10-14T03:34:49.209Z,56.92
2022-10-14T03:37:16.327Z,57.70
2022-10-14T03:39:43.253Z,66.97
2022-10-14T03:42:10.103Z,67.13
2022-10-14T03:44:37.047Z,64.03
2022-10-14T03:47:04.829Z,61.25
2022-10-14T03:49:32.101Z,55.40
2022-10-14T03:51:58.922Z,59.28
2022-10-14T03:54:25.954Z,54.03
2022-10-14T03:56:53.013Z,60.90
2022-10-14T03:59:19.853Z,60.28
2022-10-14T04:01:46.944Z,63.60
2022-10-14T04:04:13.962Z,56.70
2022-10-14T04:06:40.920Z,67.65
2022-10-14T04:09:07.660Z,52.40
2022-10-14T04:11:34.492Z,63.47
2022-10-14T04:14:01.532Z,55.08
2022-10-14T04:16:28.364Z,53.25
2022-10-14T04:18:55.138Z,58.72
2022-10-14T04:21:21.985Z,56.45
2022-10-14T04:23:48.876Z,53.80
2022-10-14T04:26:15.942Z,54.47
2022-10-14T04:28:42.902Z,45.47
2022-10-14T04:31:09.959Z,49.90
2022-10-14T04:33:37.152Z,49.95
2022-10-14T04:36:06.461Z,45.15
2022-10-14T04:38:33.786Z,43.92
2022-10-14T04:41:01.072Z,45.92
2022-10-14T04:43:27.940Z,47.78
2022-10-14T04:45:54.913Z,51.00
2022-10-14T04:48:21.940Z,48.45
2022-10-14T04:50:52.993Z,52.47
2022-10-14T04:53:22.249Z,44.33
2022-10-14T04:55:50.149Z,44.80
2022-10-14T04:58:17.273Z,50.92
2022-10-14T05:00:44.298Z,44.72
2022-10-14T05:03:11.554Z,42.78
2022-10-14T05:05:38.691Z,46.03
2022-10-14T05:08:06.429Z,45.35
2022-10-14T05:10:34.122Z,46.63
2022-10-14T05:13:01.045Z,43.65
2022-10-14T05:15:28.280Z,50.45
2022-10-14T05:17:55.573Z,49.08
2022-10-14T05:20:22.490Z,46.47
2022-10-14T05:22:49.554Z,43.85
2022-10-14T05:25:16.687Z,39.35
2022-10-14T05:27:47.099Z,40.65
2022-10-14T05:30:14.558Z,44.15
2022-10-14T05:32:41.408Z,47.47
2022-10-14T05:35:08.496Z,44.75
2022-10-14T05:37:35.398Z,41.17
2022-10-14T05:40:02.494Z,35.13
2022-10-14T05:42:29.384Z,43.60
2022-10-14T05:44:56.461Z,43.22
2022-10-14T05:47:24.293Z,39.92
2022-10-14T05:49:51.312Z,41.58
2022-10-14T05:52:19.114Z,39.38
2022-10-14T05:54:46.376Z,34.38
2022-10-14T05:57:13.324Z,36.13
2022-10-14T05:59:40.292Z,35.35
2022-10-14T06:02:08.728Z,37.05
2022-10-14T06:04:35.660Z,34.60
2022-10-14T06:07:03.518Z,36.53
2022-10-14T06:09:31.358Z,30.73
2022-10-14T06:11:58.165Z,34.65
2022-10-14T06:14:25.282Z,28.77
2022-10-14T06:16:52.464Z,32.40
2022-10-14T06:19:19.506Z,29.77
2022-10-14T06:21:46.445Z,33.67
2022-10-14T06:24:13.327Z,36.13
2022-10-14T06:26:40.221Z,26.50
2022-10-14T06:29:07.279Z,32.45
2022-10-14T06:31:34.580Z,29.25
2022-10-14T06:34:05.915Z,25.65
2022-10-14T06:36:33.238Z,24.45
2022-10-14T06:39:00.373Z,26.42
2022-10-14T06:41:27.499Z,28.88
2022-10-14T06:43:54.338Z,26.23
2022-10-14T06:46:21.630Z,30.40
2022-10-14T06:48:50.409Z,26.02
2022-10-14T06:51:18.016Z,26.92
2022-10-14T06:53:44.952Z,23.20
2022-10-14T06:56:12.273Z,26.35
2022-10-14T06:58:39.378Z,26.40
2022-10-14T07:01:08.199Z,26.20
2022-10-14T07:03:36.781Z,27.77
2022-10-14T07:06:08.084Z,23.55
2022-10-14T07:08:35.396Z,21.92
2022-10-14T07:11:02.798Z,26.83
2022-10-14T07:13:30.048Z,22.92
2022-10-14T07:15:57.250Z,23.92
2022-10-14T07:18:24.438Z,23.67
2022-10-14T07:20:52.214Z,20.85
2022-10-14T07:23:19.225Z,20.80
2022-10-14T07:25:46.265Z,24.63
2022-10-14T07:28:13.357Z,22.40
2022-10-14T07:30:40.604Z,19.80
2022-10-14T07:33:07.631Z,17.25
2022-10-14T07:35:35.577Z,19.80
2022-10-14T07:38:02.809Z,18.85
2022-10-14T07:40:29.900Z,20.20
2022-10-14T07:42:57.513Z,16.23
2022-10-14T07:45:24.725Z,20.33
2022-10-14T07:47:51.911Z,16.48
2022-10-14T07:50:19.716Z,17.35
2022-10-14T07:52:46.622Z,15.73
2022-10-14T07:55:13.800Z,15.32
2022-10-14T07:57:41.032Z,18.05
2022-10-14T08:00:09.198Z,18.05
2022-10-14T08:02:36.005Z,15.70
2022-10-14T08:05:19.352Z,18.67
2022-10-14T08:07:51.587Z,15.43
2022-10-14T08:10:18.788Z,14.93
2022-10-14T08:12:46.337Z,23.55
2022-10-14T08:15:13.354Z,18.67
2022-10-14T08:17:40.374Z,17.45
2022-10-14T08:20:07.733Z,16.02
2022-10-14T08:22:34.577Z,17.25
2022-10-14T08:25:01.533Z,16.88
2022-10-14T08:27:28.497Z,18.88
2022-10-14T08:29:55.360Z,20.95
2022-10-14T08:32:23.673Z,21.40
2022-10-14T08:34:51.050Z,22.77
2022-10-14T08:37:17.949Z,21.20
2022-10-14T08:39:44.967Z,19.55
2022-10-14T08:42:30.382Z,22.15
2022-10-14T08:45:26.803Z,26.23
2022-10-14T08:47:57.292Z,22.23
2022-10-14T08:50:43.307Z,29.55
2022-10-14T08:53:36.298Z,21.40
2022-10-14T08:56:03.580Z,20.25
2022-10-14T08:58:52.701Z,19.55
2022-10-14T09:01:22.165Z,22.15
2022-10-14T09:03:50.342Z,23.80
2022-10-14T09:06:32.355Z,25.17
2022-10-14T09:09:14.275Z,21.65
2022-10-14T09:11:45.269Z,19.10
2022-10-14T09:14:35.987Z,22.38
2022-10-14T09:19:46.953Z,23.48
2022-10-14T09:22:15.608Z,21.80
2022-10-14T09:24:46.182Z,28.92
2022-10-14T09:27:17.400Z,25.05
2022-10-14T09:30:09.137Z,29.95
2022-10-14T09:32:39.430Z,30.75
2022-10-14T09:35:19.114Z,27.50
2022-10-14T09:37:46.213Z,32.47
2022-10-14T09:40:13.387Z,29.50
2022-10-14T09:43:03.854Z,28.83
2022-10-14T09:45:48.125Z,30.25
2022-10-14T09:48:44.037Z,49.53
2022-10-14T09:51:27.371Z,79.80
2022-10-14T09:54:04.824Z,44.20
2022-10-14T09:56:42.727Z,64.10
2022-10-14T09:59:22.302Z,48.45
2022-10-14T10:01:59.338Z,39.38
2022-10-14T10:04:32.087Z,35.72
2022-10-14T10:07:01.723Z,38.17
2022-10-14T10:09:29.022Z,39.67
2022-10-14T10:11:55.957Z,33.53
2022-10-14T10:14:33.753Z,36.58
2022-10-14T10:17:12.943Z,35.92
2022-10-14T10:19:47.874Z,35.15
2022-10-14T10:24:47.938Z,34.15
2022-10-14T10:27:28.648Z,27.40
2022-10-14T10:29:56.302Z,26.02
2022-10-14T10:32:42.737Z,28.70
2022-10-14T10:35:33.881Z,23.45
2022-10-14T10:38:22.453Z,24.33
2022-10-14T10:41:08.555Z,26.15
2022-10-14T10:43:58.178Z,22.02
2022-10-14T10:46:45.319Z,20.88
2022-10-14T10:49:15.097Z,17.35
2022-10-14T10:52:00.214Z,19.45
2022-10-14T10:54:44.960Z,16.77
2022-10-14T10:57:24.976Z,17.73
2022-10-14T11:00:03.079Z,16.30
2022-10-14T11:02:51.705Z,17.83
2022-10-14T11:05:29.586Z,15.23
2022-10-14T11:08:22.403Z,18.02
2022-10-14T11:11:16.406Z,17.27
2022-10-14T11:14:00.141Z,20.42
2022-10-14T11:16:42.896Z,15.05
2022-10-14T11:19:27.048Z,12.80
2022-10-14T11:22:08.259Z,12.32
2022-10-14T11:25:07.058Z,13.35
2022-10-14T11:27:43.658Z,12.00
2022-10-14T11:30:15.706Z,15.32
2022-10-14T11:33:00.209Z,12.00
2022-10-14T11:36:04.949Z,13.20
2022-10-14T11:38:38.607Z,12.82
2022-10-14T11:41:30.542Z,11.77
2022-10-14T11:44:01.160Z,7.75
2022-10-14T11:46:32.902Z,6.53
2022-10-14T11:49:05.742Z,7.18
2022-10-14T11:51:42.388Z,4.78
2022-10-14T11:54:09.227Z,7.65
2022-10-14T11:56:40.236Z,6.10
2022-10-14T11:59:36.759Z,6.38
2022-10-14T12:02:18.656Z,6.93
2022-10-14T12:04:52.539Z,9.50
2022-10-14T12:07:26.552Z,7.15
2022-10-14T12:10:03.301Z,10.63
2022-10-14T12:12:31.050Z,9.32
2022-10-14T12:15:06.392Z,13.00
2022-10-14T12:17:59.630Z,11.35
2022-10-14T12:20:55.939Z,11.88
2022-10-14T12:23:34.909Z,11.52
2022-10-14T12:26:13.330Z,10.27
2022-10-14T12:28:40.823Z,12.65
2022-10-14T12:31:33.428Z,13.55
2022-10-14T12:34:13.643Z,13.00
2022-10-14T12:36:43.204Z,12.70
2022-10-14T12:39:19.403Z,12.85
2022-10-14T12:42:12.301Z,12.82
2022-10-14T12:44:49.179Z,12.27
2022-10-14T12:47:25.117Z,12.13
2022-10-14T12:49:58.754Z,12.35
2022-10-14T12:52:31.070Z,11.75
2022-10-14T12:55:00.221Z,10.70
2022-10-14T12:57:32.313Z,11.63
2022-10-14T13:00:09.417Z,10.60
2022-10-14T13:02:46.032Z,10.18
2022-10-14T13:05:40.520Z,11.70
2022-10-14T13:08:16.199Z,10.23
2022-10-14T13:10:46.915Z,10.75
2022-10-14T13:13:38.750Z,12.48
2022-10-14T13:16:07.055Z,11.10
2022-10-14T13:18:35.699Z,11.30
2022-10-14T13:21:04.894Z,11.82
2022-10-14T13:23:55.966Z,15.77
2022-10-14T13:26:37.932Z,14.75
2022-10-14T13:29:16.180Z,20.13
2022-10-14T13:32:20.576Z,14.02
2022-10-14T13:35:07.690Z,11.05
2022-10-14T13:37:45.595Z,10.25
2022-10-14T13:40:31.767Z,11.18
2022-10-14T13:43:07.503Z,10.85
2022-10-14T13:45:43.731Z,10.68
2022-10-14T13:48:40.570Z,10.25
2022-10-14T13:51:24.439Z,11.80
2022-10-14T13:54:15.447Z,8.77
2022-10-14T13:57:42.677Z,11.40
2022-10-14T14:02:50.391Z,12.05
2022-10-14T14:05:21.581Z,12.13
2022-10-14T14:10:46.820Z,10.02
2022-10-14T14:13:25.078Z,14.77
2022-10-14T14:15:54.563Z,8.07
2022-10-14T14:18:56.213Z,10.10
2022-10-14T14:21:29.136Z,11.20
2022-10-14T14:24:01.330Z,13.57
2022-10-14T14:26:38.909Z,13.20
2022-10-14T14:29:18.473Z,11.38
2022-10-14T14:34:35.947Z,12.73
2022-10-14T14:37:32.008Z,12.88
2022-10-14T14:40:01.136Z,25.17
2022-10-14T14:42:35.998Z,12.30
2022-10-14T14:45:21.104Z,12.23
2022-10-14T14:47:50.438Z,10.15
2022-10-14T14:50:36.178Z,10.35
2022-10-14T14:53:18.884Z,13.15
2022-10-14T14:56:14.326Z,12.32
2022-10-14T14:58:47.255Z,10.90
2022-10-14T15:01:25.555Z,8.90
2022-10-14T15:04:14.723Z,10.88
2022-10-14T15:06:51.312Z,9.23
2022-10-14T15:09:25.398Z,7.53
2022-10-14T15:11:55.154Z,7.82
2022-10-14T15:14:33.112Z,8.43
2022-10-14T15:17:00.192Z,9.23
2022-10-14T15:19:28.458Z,7.53
2022-10-14T15:22:30.619Z,10.07
2022-10-14T15:25:02.611Z,7.28
2022-10-14T15:27:35.449Z,9.35
2022-10-14T15:30:17.843Z,10.27
2022-10-14T15:32:44.907Z,7.18
2022-10-14T15:35:17.415Z,7.43
2022-10-14T15:37:44.412Z,9.55
2022-10-14T15:40:15.578Z,8.77
2022-10-14T15:42:42.509Z,7.72
2022-10-14T15:45:10.712Z,10.30
2022-10-14T15:47:38.813Z,9.10
2022-10-14T15:50:08.482Z,13.70
2022-10-14T15:52:35.591Z,11.60
2022-10-14T15:55:09.058Z,9.00
2022-10-14T15:57:35.955Z,10.30
2022-10-14T16:00:03.054Z,6.22
2022-10-14T16:02:33.225Z,13.68
2022-10-14T16:05:19.321Z,9.00
2022-10-14T16:07:48.426Z,18.70
2022-10-14T16:10:20.845Z,15.98
2022-10-14T16:12:48.289Z,25.85
2022-10-14T16:15:24.526Z,27.05
2022-10-14T16:17:53.007Z,17.00
2022-10-14T16:20:21.715Z,15.20
2022-10-14T16:22:48.755Z,10.88
2022-10-14T16:25:36.135Z,12.52
2022-10-14T16:28:10.038Z,9.65
2022-10-14T16:30:45.907Z,11.43
2022-10-14T16:33:12.894Z,8.07
2022-10-14T16:35:40.091Z,10.57
2022-10-14T16:38:07.140Z,8.98
2022-10-14T16:40:36.742Z,6.70
2022-10-14T16:43:04.715Z,5.97
2022-10-14T16:45:32.336Z,17.15
2022-10-14T16:48:00.113Z,11.30
2022-10-14T16:50:27.186Z,9.50
2022-10-14T16:53:12.654Z,13.07
2022-10-14T16:55:39.666Z,11.00
2022-10-14T16:58:06.559Z,11.95
2022-10-14T17:00:33.520Z,10.30
2022-10-14T17:03:02.174Z,9.70
2022-10-14T17:05:29.253Z,8.45
2022-10-14T17:07:56.222Z,11.68
2022-10-14T17:10:23.402Z,11.00
2022-10-14T17:12:50.513Z,8.80
2022-10-14T17:15:17.722Z,10.48
2022-10-14T17:17:44.554Z,8.55
2022-10-14T17:20:12.407Z,9.70
2022-10-14T17:22:39.958Z,11.80
2022-10-14T17:25:08.574Z,10.55
2022-10-14T17:27:35.841Z,9.88
2022-10-14T17:30:03.669Z,13.00
2022-10-14T17:32:30.735Z,15.23
2022-10-14T17:34:57.897Z,10.07
2022-10-14T17:37:24.985Z,9.80
2022-10-14T17:39:51.990Z,13.50
2022-10-14T17:42:18.946Z,13.73
2022-10-14T17:44:46.017Z,14.50
2022-10-14T17:47:13.045Z,18.85
2022-10-14T17:49:43.498Z,16.30
2022-10-14T17:52:11.394Z,13.38
2022-10-14T17:54:38.868Z,11.88
2022-10-14T17:57:08.323Z,16.17
2022-10-14T17:59:35.554Z,16.50
2022-10-14T18:02:03.702Z,13.00
2022-10-14T18:04:32.812Z,13.30
2022-10-14T18:07:00.148Z,14.98
2022-10-14T18:09:27.067Z,12.35
2022-10-14T18:12:10.329Z,13.68
2022-10-14T18:14:41.735Z,15.43
2022-10-14T18:17:13.379Z,14.32
2022-10-14T18:19:41.730Z,17.35
2022-10-14T18:22:11.200Z,11.60
2022-10-14T18:24:39.399Z,13.65
2022-10-14T18:27:06.723Z,12.35
2022-10-14T18:29:33.727Z,10.00
2022-10-14T18:32:01.226Z,10.73
2022-10-14T18:34:28.351Z,13.13
2022-10-14T18:36:57.965Z,15.88
2022-10-14T18:39:25.426Z,12.65
2022-10-14T18:41:52.360Z,9.90
2022-10-14T18:44:19.622Z,13.07
2022-10-14T18:46:47.888Z,7.63
2022-10-14T18:49:15.292Z,8.40
2022-10-14T18:51:43.426Z,11.20
2022-10-14T18:54:19.127Z,12.40
2022-10-14T18:56:47.072Z,10.30
2022-10-14T18:59:18.291Z,10.57
2022-10-14T19:01:46.763Z,9.13
2022-10-14T19:04:16.660Z,10.63
2022-10-14T19:06:50.491Z,13.60
2022-10-14T19:09:20.440Z,9.32
2022-10-14T19:11:51.671Z,10.88
2022-10-14T19:14:18.788Z,11.25
2022-10-14T19:16:49.672Z,13.88
2022-10-14T19:19:19.779Z,9.20
2022-10-14T19:21:52.305Z,8.52
2022-10-14T19:24:19.660Z,9.90
2022-10-14T19:26:47.885Z,10.43
2022-10-14T19:29:16.371Z,10.43
2022-10-14T19:31:44.490Z,9.35
2022-10-14T19:34:13.733Z,11.95
2022-10-14T19:36:41.782Z,12.23
2022-10-14T19:39:11.914Z,14.07
2022-10-14T19:41:43.338Z,14.93
2022-10-14T19:44:11.500Z,12.65
2022-10-14T19:46:39.095Z,11.88
2022-10-14T19:49:08.106Z,15.43
2022-10-14T19:51:35.379Z,12.68
2022-10-14T19:54:02.681Z,11.73
2022-10-14T19:56:30.472Z,12.57
2022-10-14T19:58:58.999Z,14.68
2022-10-14T20:01:29.285Z,12.32
2022-10-14T20:03:57.182Z,14.77
2022-10-14T20:06:24.608Z,13.65
2022-10-14T20:08:51.753Z,12.57
2022-10-14T20:11:22.522Z,11.95
2022-10-14T20:13:49.433Z,12.23
2022-10-14T20:16:17.151Z,12.43
2022-10-14T20:18:44.296Z,13.57
2022-10-14T20:21:14.148Z,13.65
2022-10-14T20:23:42.354Z,15.13
2022-10-14T20:26:13.341Z,13.23
2022-10-14T20:28:40.796Z,17.65
2022-10-14T20:31:13.153Z,15.40
2022-10-14T20:33:40.624Z,13.40
2022-10-14T20:36:11.394Z,14.05
2022-10-14T20:38:39.194Z,13.60
2022-10-14T20:41:08.799Z,15.07
2022-10-14T20:43:35.735Z,14.80
2022-10-14T20:46:03.618Z,12.23
2022-10-14T20:48:30.698Z,14.10
2022-10-14T20:51:00.124Z,13.40
2022-10-14T20:53:28.870Z,16.92
2022-10-14T20:56:05.306Z,14.75
2022-10-14T20:58:32.602Z,13.50
2022-10-14T21:01:07.120Z,14.80
2022-10-14T21:03:34.260Z,13.77
2022-10-14T21:06:03.679Z,13.68
2022-10-14T21:08:31.295Z,14.63
2022-10-14T21:11:02.883Z,15.40
2022-10-14T21:13:30.754Z,17.95
2022-10-14T21:15:57.969Z,16.30
2022-10-14T21:18:25.502Z,19.13
2022-10-14T21:23:20.160Z,16.65
2022-10-14T21:25:56.087Z,17.23
2022-10-14T21:28:24.138Z,14.63
2022-10-14T21:30:51.742Z,19.40
2022-10-14T21:33:19.043Z,14.60
2022-10-14T21:35:46.369Z,16.90
2022-10-14T21:38:13.454Z,20.50
2022-10-14T21:40:40.342Z,20.45
2022-10-14T21:43:07.366Z,18.63
2022-10-14T21:45:34.536Z,17.33
2022-10-14T21:48:01.389Z,18.95
2022-10-14T21:50:28.242Z,17.20
2022-10-14T21:52:55.051Z,16.23
2022-10-14T21:55:22.176Z,17.90
2022-10-14T21:57:49.377Z,14.18
2022-10-14T22:00:16.581Z,18.25
2022-10-14T22:02:43.465Z,16.90
2022-10-14T22:05:10.288Z,14.23
2022-10-14T22:07:37.310Z,14.25
2022-10-14T22:10:24.420Z,19.33
2022-10-14T22:12:51.203Z,15.77
2022-10-14T22:15:18.010Z,17.55
2022-10-14T22:17:44.935Z,14.35
2022-10-14T22:20:11.944Z,13.15
2022-10-14T22:22:39.178Z,13.45
2022-10-14T22:25:06.697Z,14.85
2022-10-14T22:27:33.725Z,16.75
2022-10-14T22:30:00.643Z,16.58
2022-10-14T22:32:27.495Z,16.42
2022-10-14T22:34:54.482Z,17.30
2022-10-14T22:37:21.825Z,17.42
2022-10-14T22:39:48.922Z,13.98
2022-10-14T22:42:15.779Z,17.13
2022-10-14T22:44:42.609Z,16.58
2022-10-14T22:47:09.797Z,16.95
2022-10-14T22:49:36.759Z,17.25
2022-10-14T22:52:03.913Z,15.27
2022-10-14T22:54:30.718Z,16.42
2022-10-14T22:56:57.588Z,15.43
2022-10-14T22:59:24.558Z,15.10
2022-10-14T23:01:51.488Z,14.95
2022-10-14T23:04:18.273Z,14.70
2022-10-14T23:06:49.285Z,16.38
2022-10-14T23:09:16.750Z,14.57
2022-10-14T23:11:43.573Z,15.98
2022-10-14T23:14:10.342Z,15.32
2022-10-14T23:16:39.155Z,14.48
2022-10-14T23:19:06.399Z,21.98
2022-10-14T23:21:36.324Z,24.58
2022-10-14T23:24:10.612Z,31.50
2022-10-14T23:26:38.288Z,20.80
2022-10-14T23:29:11.743Z,22.48
2022-10-14T23:31:39.870Z,36.10
2022-10-14T23:34:10.504Z,33.13
2022-10-14T23:36:37.763Z,21.08
2022-10-14T23:39:05.156Z,15.48
2022-10-14T23:41:32.102Z,15.02
2022-10-14T23:43:59.085Z,15.05
2022-10-14T23:46:26.652Z,16.15
2022-10-14T23:49:07.025Z,16.20
2022-10-14T23:51:41.586Z,13.63
2022-10-14T23:54:08.397Z,14.30
2022-10-14T23:56:35.173Z,16.98
2022-10-14T23:59:02.205Z,17.05
